Time;durP1;ratioP1;P1;durP2;ratioP2;P2;SDS_P1;SDS_P2;PMS_P1;PMS_P2;Temp;Humidity;BMP_temperature;BMP_pressure;BME280_temperature;BME280_humidity;BME280_pressure;Samples;Min_cycle;Max_cycle;Signal;HPM_P1;HPM_P2
2022/02/23 00:01:09;;;;;;;7.00;3.20;;;;;;;2.20;76.28;98480.18;104723;1274;60962;-22
2022/02/23 00:03:39;;;;;;;4.40;2.80;;;;;;;1.87;77.92;98486.92;105138;1274;76209;-23
2022/02/23 00:06:08;;;;;;;4.50;2.80;;;;;;;1.68;79.01;98493.80;104952;1274;74579;-22
2022/02/23 00:08:36;;;;;;;3.00;2.30;;;;;;;1.42;80.47;98496.66;105099;1274;74658;-23
2022/02/23 00:11:05;;;;;;;4.40;2.40;;;;;;;1.79;79.77;98496.45;104943;1274;61261;-22
2022/02/23 00:13:34;;;;;;;7.10;3.60;;;;;;;2.22;77.73;98500.11;104897;1275;61130;-22
2022/02/23 00:16:02;;;;;;;4.90;2.60;;;;;;;2.16;77.63;98498.88;104903;1274;75455;-23
2022/02/23 00:18:30;;;;;;;5.90;2.60;;;;;;;2.05;77.89;98501.71;105088;1274;75837;-22
2022/02/23 00:20:59;;;;;;;3.70;2.10;;;;;;;1.74;78.67;98501.83;105099;1274;74472;-23
2022/02/23 00:23:28;;;;;;;2.80;2.00;;;;;;;1.61;78.73;98505.92;105181;1273;61073;-22
2022/02/23 00:25:56;;;;;;;4.80;2.10;;;;;;;1.43;78.65;98500.05;104930;1274;62092;-26
2022/02/23 00:28:25;;;;;;;6.10;1.80;;;;;;;1.66;77.85;98501.39;104814;1273;75532;-24
2022/02/23 00:30:53;;;;;;;2.90;1.40;;;;;;;2.01;76.37;98504.51;104810;1274;73219;-25
2022/02/23 00:33:21;;;;;;;2.50;1.50;;;;;;;2.06;76.28;98503.05;104960;1274;74190;-23
2022/02/23 00:35:50;;;;;;;4.20;2.20;;;;;;;1.84;76.69;98503.68;104844;1273;61017;-23
2022/02/23 00:38:18;;;;;;;2.40;1.60;;;;;;;1.77;77.03;98506.81;105132;1274;61076;-24
2022/02/23 00:40:48;;;;;;;3.50;1.70;;;;;;;1.46;78.17;98503.31;105123;1274;72788;-25
2022/02/23 00:43:17;;;;;;;3.40;2.00;;;;;;;1.28;78.95;98507.14;105150;1274;74479;-24
2022/02/23 00:45:45;;;;;;;3.10;1.60;;;;;;;1.58;78.36;98511.05;104834;1274;74582;-26
2022/02/23 00:48:13;;;;;;;4.80;1.90;;;;;;;1.97;76.39;98511.05;104876;1274;61162;-25
2022/02/23 00:50:41;;;;;;;2.80;1.60;;;;;;;1.98;75.96;98509.08;104776;1274;61901;-22
2022/02/23 00:53:10;;;;;;;4.20;1.60;;;;;;;1.74;76.44;98513.15;104812;1274;75583;-22
2022/02/23 00:55:38;;;;;;;3.40;1.60;;;;;;;1.58;77.18;98515.88;104811;1274;74399;-22
2022/02/23 00:58:06;;;;;;;1.50;1.30;;;;;;;1.50;77.36;98524.67;105016;1274;72269;-22
2022/02/23 01:00:35;;;;;;;4.40;2.20;;;;;;;1.30;78.39;98520.73;105128;1274;61091;-22
2022/02/23 01:03:03;;;;;;;2.20;1.30;;;;;;;1.47;77.99;98524.81;105133;1274;61969;-22
2022/02/23 01:05:32;;;;;;;2.60;1.60;;;;;;;2.14;75.54;98521.09;104950;1274;74477;-22
2022/02/23 01:08:00;;;;;;;4.80;1.40;;;;;;;2.41;73.87;98520.42;105129;1274;75306;-22
2022/02/23 01:10:29;;;;;;;1.40;1.20;;;;;;;2.19;74.20;98524.59;105157;1274;73471;-22
2022/02/23 01:12:58;;;;;;;5.80;2.10;;;;;;;1.74;75.98;98522.87;105111;1274;61077;-22
2022/02/23 01:15:26;;;;;;;2.70;1.80;;;;;;;1.62;76.18;98525.89;105140;1274;62066;-22
2022/02/23 01:17:55;;;;;;;2.50;1.80;;;;;;;1.33;77.32;98530.33;105170;1274;75336;-22
2022/02/23 01:20:23;;;;;;;7.00;2.10;;;;;;;1.15;78.16;98536.88;104797;1275;74570;-22
2022/02/23 01:22:55;;;;;;;4.50;1.40;;;;;;;1.01;79.19;98541.51;104900;1274;74686;-23
2022/02/23 01:25:25;;;;;;;3.00;1.30;;;;;;;1.66;77.46;98545.91;104911;1274;60951;-22
2022/02/23 01:27:59;;;;;;;3.50;1.60;;;;;;;2.23;74.40;98544.18;105113;1275;60955;-22
2022/02/23 01:30:28;;;;;;;4.00;1.60;;;;;;;2.28;73.60;98541.37;104885;1274;75903;-22
2022/02/23 01:32:56;;;;;;;2.70;1.40;;;;;;;2.05;73.67;98546.54;105088;1274;76143;-22
2022/02/23 01:35:25;;;;;;;4.20;1.40;;;;;;;1.75;74.46;98551.56;104876;1274;73346;-23
2022/02/23 01:37:53;;;;;;;2.70;1.40;;;;;;;1.47;75.47;98549.43;104616;1277;61227;-22
2022/02/23 01:40:22;;;;;;;3.50;1.50;;;;;;;1.25;76.20;98549.38;104699;1274;61086;-22
2022/02/23 01:42:53;;;;;;;2.50;1.20;;;;;;;1.00;77.05;98550.95;104503;1273;75620;-22
2022/02/23 01:45:22;;;;;;;2.30;1.00;;;;;;;0.85;78.23;98554.63;104904;1274;74919;-22
2022/02/23 01:47:50;;;;;;;2.60;2.10;;;;;;;1.28;77.09;98554.54;105127;1273;72640;-23
2022/02/23 01:50:28;;;;;;;3.30;1.40;;;;;;;1.87;74.80;98559.66;105067;1274;61144;-22
2022/02/23 01:52:56;;;;;;;2.40;1.30;;;;;;;1.92;74.04;98560.80;105125;1275;61996;-22
2022/02/23 01:55:24;;;;;;;3.30;1.60;;;;;;;1.78;74.34;98562.73;105139;1274;75153;-22
2022/02/23 01:57:53;;;;;;;1.90;1.40;;;;;;;1.58;74.69;98559.50;105135;1273;76025;-22
2022/02/23 02:00:21;;;;;;;2.70;1.60;;;;;;;1.33;75.43;98561.95;105104;1274;74465;-23
2022/02/23 02:02:50;;;;;;;2.20;1.20;;;;;;;1.10;76.71;98564.62;104766;1274;61115;-22
2022/02/23 02:05:20;;;;;;;3.30;1.80;;;;;;;0.97;76.99;98567.01;104826;1274;61613;-22
2022/02/23 02:07:49;;;;;;;2.40;1.50;;;;;;;0.88;77.82;98571.05;105133;1274;74017;-22
2022/02/23 02:10:17;;;;;;;3.90;1.60;;;;;;;1.39;76.38;98572.47;105040;1275;76146;-22
2022/02/23 02:12:46;;;;;;;4.00;1.90;;;;;;;2.02;73.90;98575.98;105034;1274;74302;-22
2022/02/23 02:15:14;;;;;;;4.70;2.20;;;;;;;2.10;73.01;98574.38;105008;1273;61158;-23
2022/02/23 02:17:42;;;;;;;7.70;2.00;;;;;;;1.86;73.46;98578.21;104876;1274;61378;-22
2022/02/23 02:20:11;;;;;;;3.60;2.00;;;;;;;1.71;74.00;98583.61;105107;1274;75471;-22
2022/02/23 02:22:40;;;;;;;3.20;2.00;;;;;;;1.49;74.35;98588.02;104809;1275;76534;-22
2022/02/23 02:25:08;;;;;;;2.50;1.60;;;;;;;1.28;74.99;98585.96;104995;1274;74590;-25
2022/02/23 02:27:37;;;;;;;4.30;1.90;;;;;;;1.13;75.65;98583.32;104853;1274;61144;-25
2022/02/23 02:30:06;;;;;;;4.60;1.20;;;;;;;0.95;75.90;98581.98;105169;1274;61139;-22
2022/02/23 02:32:35;;;;;;;5.10;2.10;;;;;;;1.26;74.13;98584.56;104641;1274;74949;-24
2022/02/23 02:35:03;;;;;;;3.40;1.60;;;;;;;1.72;71.76;98588.71;105055;1274;75225;-24
2022/02/23 02:37:32;;;;;;;4.10;1.80;;;;;;;1.72;71.21;98589.41;105142;1274;74409;-22
2022/02/23 02:40:00;;;;;;;2.80;1.60;;;;;;;1.44;71.40;98590.50;105120;1274;61181;-22
2022/02/23 02:42:29;;;;;;;4.40;1.70;;;;;;;1.19;71.84;98588.68;105120;1274;61183;-23
2022/02/23 02:44:57;;;;;;;3.20;1.60;;;;;;;0.95;73.25;98588.16;105121;1274;74713;-22
2022/02/23 02:47:26;;;;;;;4.60;2.20;;;;;;;0.62;73.67;98589.89;105152;1274;75246;-22
2022/02/23 02:49:54;;;;;;;4.40;2.00;;;;;;;0.49;74.09;98592.91;105100;1274;74458;-22
2022/02/23 02:52:23;;;;;;;2.80;1.70;;;;;;;0.34;75.00;98593.61;104958;1274;61228;-24
2022/02/23 02:54:52;;;;;;;2.30;1.10;;;;;;;0.21;75.25;98594.19;104634;1274;61096;-24
2022/02/23 02:57:20;;;;;;;3.70;1.20;;;;;;;0.68;74.18;98592.35;104796;1274;75338;-24
2022/02/23 02:59:48;;;;;;;2.50;1.50;;;;;;;1.29;71.56;98595.85;105013;1274;76009;-24
2022/02/23 03:02:17;;;;;;;3.40;1.90;;;;;;;1.43;70.70;98595.68;105002;1274;74755;-24
2022/02/23 03:04:45;;;;;;;2.80;1.20;;;;;;;1.25;71.04;98594.02;105136;1273;60948;-24
2022/02/23 03:07:13;;;;;;;3.70;1.50;;;;;;;0.86;72.01;98597.66;105101;1274;61043;-24
2022/02/23 03:09:50;;;;;;;2.30;1.40;;;;;;;0.43;73.35;98599.66;104813;1274;74967;-22
2022/02/23 03:12:19;;;;;;;3.70;1.80;;;;;;;0.15;74.20;98600.44;105090;1274;74771;-22
2022/02/23 03:14:48;;;;;;;3.40;1.50;;;;;;;0.01;74.43;98599.84;105175;1274;72914;-24
2022/02/23 03:17:16;;;;;;;3.00;1.60;;;;;;;-0.17;74.94;98602.36;105110;1274;61029;-24
2022/02/23 03:19:45;;;;;;;2.80;1.60;;;;;;;-0.36;75.42;98603.40;105037;1274;61307;-23
2022/02/23 03:22:14;;;;;;;1.30;0.80;;;;;;;-0.52;75.59;98604.40;104570;1274;75414;-23
2022/02/23 03:24:43;;;;;;;2.60;1.30;;;;;;;-0.05;75.55;98608.84;104681;1274;75894;-23
2022/02/23 03:27:11;;;;;;;5.90;1.50;;;;;;;0.61;72.91;98612.64;105049;1274;74299;-23
2022/02/23 03:29:39;;;;;;;2.30;1.70;;;;;;;0.68;71.54;98612.50;104749;1274;61049;-23
2022/02/23 03:32:08;;;;;;;3.80;1.50;;;;;;;0.46;71.84;98610.10;104898;1274;62065;-23
2022/02/23 03:34:36;;;;;;;2.70;1.40;;;;;;;0.19;72.46;98613.05;105161;1273;74494;-23
2022/02/23 03:37:04;;;;;;;2.30;1.30;;;;;;;-0.09;73.15;98610.55;105092;1274;76042;-23
2022/02/23 03:39:33;;;;;;;2.50;1.30;;;;;;;-0.36;74.53;98615.33;105135;1274;74153;-23
2022/02/23 03:42:02;;;;;;;4.60;1.50;;;;;;;-0.60;75.20;98617.53;105109;1274;61306;-23
2022/02/23 03:44:30;;;;;;;4.40;1.90;;;;;;;-0.88;76.19;98616.80;104942;1275;62028;-24
2022/02/23 03:46:59;;;;;;;4.70;1.60;;;;;;;-1.10;76.66;98618.91;104800;1274;75478;-23
2022/02/23 03:49:28;;;;;;;1.50;1.10;;;;;;;-1.27;77.46;98616.48;105102;1274;75961;-23
2022/02/23 03:51:56;;;;;;;3.00;1.30;;;;;;;-0.76;76.77;98617.15;105135;1274;74467;-23
2022/02/23 03:54:25;;;;;;;3.60;1.40;;;;;;;-0.08;74.66;98619.56;104838;1274;61207;-23
2022/02/23 03:56:53;;;;;;;2.20;1.40;;;;;;;0.02;73.60;98618.63;105100;1274;61063;-23
2022/02/23 03:59:22;;;;;;;2.70;1.30;;;;;;;-0.17;73.75;98621.66;104696;1274;74591;-23
2022/02/23 04:01:50;;;;;;;3.50;1.30;;;;;;;-0.45;74.18;98618.25;105113;1274;76239;-23
2022/02/23 04:04:18;;;;;;;2.70;1.80;;;;;;;-0.72;75.02;98617.52;104775;1274;70624;-23
2022/02/23 04:06:48;;;;;;;3.90;1.90;;;;;;;-0.99;75.30;98619.14;105060;1274;61140;-23
2022/02/23 04:09:16;;;;;;;2.80;1.60;;;;;;;-1.20;75.79;98623.21;104752;1274;61054;-23
2022/02/23 04:11:44;;;;;;;2.40;1.40;;;;;;;-1.33;75.93;98631.23;104802;1275;74526;-24
2022/02/23 04:14:13;;;;;;;3.00;1.70;;;;;;;-1.45;76.37;98630.17;105053;1273;73549;-23
2022/02/23 04:16:41;;;;;;;2.00;1.20;;;;;;;-0.98;75.95;98628.11;105143;1274;73809;-23
2022/02/23 04:19:12;;;;;;;2.90;1.40;;;;;;;-0.28;73.68;98631.02;105064;1274;62627;-23
2022/02/23 04:21:40;;;;;;;3.50;2.00;;;;;;;-0.16;72.48;98635.24;104820;1274;61583;-23
2022/02/23 04:24:08;;;;;;;2.30;1.30;;;;;;;-0.33;72.47;98634.46;104891;1273;74615;-23
2022/02/23 04:26:37;;;;;;;2.40;1.00;;;;;;;-0.61;73.22;98633.94;104804;1274;74957;-23
2022/02/23 04:29:05;;;;;;;2.50;1.10;;;;;;;-0.89;74.01;98635.77;105036;1274;74176;-23
2022/02/23 04:31:34;;;;;;;3.20;1.40;;;;;;;-1.16;74.81;98634.13;105033;1274;60965;-23
2022/02/23 04:34:03;;;;;;;4.30;1.60;;;;;;;-1.41;75.83;98635.27;104905;1274;61147;-23
2022/02/23 04:36:31;;;;;;;2.60;1.30;;;;;;;-1.61;76.39;98634.20;104798;1275;72515;-23
2022/02/23 04:38:59;;;;;;;1.10;0.80;;;;;;;-1.76;76.84;98637.98;105106;1274;75794;-23
2022/02/23 04:41:28;;;;;;;2.20;1.20;;;;;;;-1.32;76.71;98635.10;104994;1274;74360;-23
2022/02/23 04:43:56;;;;;;;4.30;1.50;;;;;;;-0.59;74.99;98636.77;104797;1274;61190;-23
2022/02/23 04:46:25;;;;;;;1.80;1.10;;;;;;;-0.42;73.93;98637.08;104991;1274;61127;-23
2022/02/23 04:48:54;;;;;;;1.70;1.00;;;;;;;-0.60;73.66;98640.39;104722;1274;75577;-23
2022/02/23 04:51:27;;;;;;;2.70;1.20;;;;;;;-0.87;74.06;98644.55;105119;1274;74968;-24
2022/02/23 04:53:57;;;;;;;1.30;1.00;;;;;;;-1.15;74.64;98646.35;105140;1271;73200;-23
2022/02/23 04:56:30;;;;;;;3.30;1.40;;;;;;;-1.40;75.41;98648.70;105156;1271;61081;-23
2022/02/23 04:58:59;;;;;;;4.20;1.40;;;;;;;-1.62;75.68;98652.78;105075;1271;61262;-23
2022/02/23 05:01:28;;;;;;;2.40;1.20;;;;;;;-1.82;76.08;98656.55;105406;1271;74114;-23
2022/02/23 05:03:58;;;;;;;2.70;1.10;;;;;;;-1.94;76.55;98662.96;105386;1270;75226;-23
2022/02/23 05:06:27;;;;;;;2.10;1.10;;;;;;;-1.38;76.06;98668.21;105381;1271;74148;-23
2022/02/23 05:08:55;;;;;;;2.20;1.60;;;;;;;-0.70;74.45;98670.30;105430;1271;61105;-23
2022/02/23 05:11:24;;;;;;;2.30;1.60;;;;;;;-0.57;73.78;98669.92;105415;1269;61141;-23
2022/02/23 05:13:53;;;;;;;3.00;1.80;;;;;;;-0.72;73.86;98672.24;105093;1271;74041;-23
2022/02/23 05:16:41;;;;;;;2.10;1.50;;;;;;;-0.97;74.63;98674.29;105013;1271;76195;-23
2022/02/23 05:19:09;;;;;;;3.00;1.60;;;;;;;-1.20;75.57;98675.02;105125;1271;73514;-23
2022/02/23 05:21:37;;;;;;;2.50;1.30;;;;;;;-1.39;76.65;98678.64;105391;1271;61270;-23
2022/02/23 05:24:18;;;;;;;2.30;1.00;;;;;;;-1.45;76.76;98685.85;105370;1271;61016;-23
2022/02/23 05:26:47;;;;;;;3.30;1.10;;;;;;;-0.92;76.66;98685.98;105219;1271;74469;-23
2022/02/23 05:29:15;;;;;;;2.20;1.30;;;;;;;-0.28;74.78;98683.91;105392;1271;75977;-23
2022/02/23 05:31:43;;;;;;;1.40;0.90;;;;;;;-0.11;73.82;98685.90;105244;1271;74189;-23
2022/02/23 05:34:12;;;;;;;3.70;1.70;;;;;;;-0.30;74.27;98686.19;105351;1270;61135;-22
2022/02/23 05:36:41;;;;;;;2.20;1.30;;;;;;;-0.45;75.22;98690.57;105243;1270;61088;-23
2022/02/23 05:39:09;;;;;;;2.10;1.50;;;;;;;-0.57;75.04;98691.05;105309;1269;74528;-23
2022/02/23 05:41:37;;;;;;;3.50;1.70;;;;;;;-0.73;76.04;98695.46;105367;1270;75937;-24
2022/02/23 05:44:06;;;;;;;2.00;1.20;;;;;;;-0.90;77.08;98696.17;105318;1271;74451;-25
2022/02/23 05:46:34;;;;;;;1.90;1.30;;;;;;;-0.99;78.30;98697.18;105410;1271;61609;-24
2022/02/23 05:49:03;;;;;;;4.40;1.50;;;;;;;-0.37;77.27;98699.98;105120;1271;61086;-23
2022/02/23 05:51:33;;;;;;;2.20;1.10;;;;;;;0.26;75.16;98702.36;105376;1271;75334;-24
2022/02/23 05:54:01;;;;;;;7.90;2.20;;;;;;;0.35;74.58;98702.83;105206;1271;75750;-23
2022/02/23 05:56:30;;;;;;;3.60;1.70;;;;;;;0.22;75.10;98705.46;105408;1271;74421;-24
2022/02/23 05:58:59;;;;;;;4.00;1.90;;;;;;;0.03;76.20;98705.44;105191;1271;61202;-24
2022/02/23 06:01:27;;;;;;;2.30;1.30;;;;;;;-0.12;76.80;98709.35;105108;1271;61233;-24
2022/02/23 06:03:56;;;;;;;2.50;2.10;;;;;;;-0.25;77.71;98711.23;105349;1271;75560;-24
2022/02/23 06:06:33;;;;;;;3.80;2.30;;;;;;;-0.30;77.17;98712.47;104921;1271;224502;-24
2022/02/23 06:09:02;;;;;;;4.40;2.60;;;;;;;-0.39;77.93;98711.12;105339;1270;74239;-23
2022/02/23 06:11:30;;;;;;;4.70;1.70;;;;;;;0.16;77.62;98711.02;105339;1271;61121;-25
2022/02/23 06:13:58;;;;;;;3.50;1.50;;;;;;;0.82;75.34;98713.52;105293;1271;61517;-23
2022/02/23 06:16:27;;;;;;;2.50;1.40;;;;;;;0.90;74.59;98714.66;105367;1271;75250;-23
2022/02/23 06:18:56;;;;;;;3.70;2.20;;;;;;;0.77;74.47;98709.30;105149;1269;76007;-23
2022/02/23 06:21:25;;;;;;;4.70;2.30;;;;;;;0.54;75.33;98713.58;105134;1271;73142;-23
2022/02/23 06:23:53;;;;;;;4.50;1.30;;;;;;;0.53;75.42;98715.16;105357;1271;61044;-23
2022/02/23 06:26:22;;;;;;;2.10;1.80;;;;;;;0.35;76.04;98717.36;105328;1271;61766;-23
2022/02/23 06:28:50;;;;;;;4.90;1.90;;;;;;;0.25;76.45;98716.08;105155;1271;75585;-23
2022/02/23 06:31:19;;;;;;;6.20;2.20;;;;;;;0.35;76.90;98719.58;105393;1271;75818;-24
2022/02/23 06:33:47;;;;;;;6.60;2.60;;;;;;;1.14;75.23;98729.13;105302;1271;74559;-23
2022/02/23 06:36:16;;;;;;;7.20;2.50;;;;;;;1.65;73.84;98729.27;105159;1271;61031;-23
2022/02/23 06:38:45;;;;;;;3.30;2.10;;;;;;;1.73;73.22;98729.52;105375;1271;61056;-23
2022/02/23 06:41:15;;;;;;;6.40;1.70;;;;;;;1.66;73.05;98728.84;105277;1271;74470;-23
2022/02/23 06:43:45;;;;;;;3.20;2.30;;;;;;;1.50;73.24;98729.79;105175;1271;75102;-24
2022/02/23 06:46:14;;;;;;;3.50;2.80;;;;;;;1.38;74.02;98731.38;105143;1272;74698;-23
2022/02/23 06:48:47;;;;;;;4.30;2.50;;;;;;;1.33;74.33;98730.77;105057;1271;61140;-23
2022/02/23 06:51:18;;;;;;;3.90;2.20;;;;;;;1.28;74.74;98731.17;105160;1271;62210;-23
2022/02/23 06:53:48;;;;;;;5.40;3.00;;;;;;;1.24;74.33;98733.95;105147;1271;73205;-22
2022/02/23 06:56:17;;;;;;;5.90;2.50;;;;;;;1.22;75.12;98738.64;105157;1271;75767;-23
2022/02/23 06:58:47;;;;;;;3.20;2.30;;;;;;;1.82;74.19;98739.52;105374;1270;74834;-23
2022/02/23 07:01:18;;;;;;;3.60;2.50;;;;;;;2.37;72.22;98739.42;104924;1271;61290;-22
2022/02/23 07:03:47;;;;;;;5.60;3.10;;;;;;;2.49;71.82;98741.06;105298;1271;61986;-23
2022/02/23 07:06:16;;;;;;;3.90;2.40;;;;;;;2.48;71.55;98741.46;105206;1271;75284;-22
2022/02/23 07:08:46;;;;;;;4.70;2.50;;;;;;;2.36;72.00;98738.99;105222;1271;76740;-23
2022/02/23 07:11:14;;;;;;;5.30;2.80;;;;;;;2.32;72.11;98739.73;105149;1272;74523;-23
2022/02/23 07:13:44;;;;;;;7.30;3.40;;;;;;;2.23;71.85;98741.36;105355;1269;61143;-23
2022/02/23 07:16:12;;;;;;;6.30;3.70;;;;;;;2.10;72.02;98744.77;105387;1270;61017;-23
2022/02/23 07:18:41;;;;;;;5.50;2.80;;;;;;;1.98;72.41;98750.55;105225;1271;74641;-21
2022/02/23 07:21:09;;;;;;;5.50;3.30;;;;;;;1.94;72.33;98753.82;105330;1271;76330;-24
2022/02/23 07:23:38;;;;;;;8.70;3.80;;;;;;;1.87;72.62;98751.42;104914;1271;74439;-23
2022/02/23 07:26:06;;;;;;;4.20;2.20;;;;;;;1.91;72.98;98754.44;105099;1271;62816;-23
2022/02/23 07:28:37;;;;;;;7.70;3.30;;;;;;;2.46;72.05;98754.95;105407;1271;61051;-23
2022/02/23 07:31:14;;;;;;;6.60;3.20;;;;;;;3.07;70.23;98760.75;105325;1271;75333;-23
2022/02/23 07:33:42;;;;;;;6.00;3.50;;;;;;;3.22;69.51;98758.56;104988;1271;74183;-24
2022/02/23 07:36:10;;;;;;;4.30;2.20;;;;;;;3.10;68.94;98765.76;105155;1270;73224;-25
2022/02/23 07:38:42;;;;;;;6.30;3.50;;;;;;;2.93;69.58;98763.21;105264;1271;60994;-25
2022/02/23 07:41:11;;;;;;;4.90;3.10;;;;;;;2.81;69.61;98767.98;105402;1271;61036;-25
2022/02/23 07:43:59;;;;;;;8.10;3.30;;;;;;;2.71;70.11;98771.41;105164;1271;75300;-24
2022/02/23 07:46:28;;;;;;;7.90;4.50;;;;;;;2.66;70.43;98768.27;105424;1271;75906;-24
2022/02/23 07:49:00;;;;;;;5.60;3.10;;;;;;;2.52;70.81;98770.20;105393;1271;73128;-22
2022/02/23 07:51:31;;;;;;;6.70;4.80;;;;;;;2.37;70.62;98764.95;105336;1271;61167;-23
2022/02/23 07:53:59;;;;;;;6.30;4.50;;;;;;;2.30;71.43;98766.56;105238;1271;61012;-23
2022/02/23 07:56:28;;;;;;;2.40;1.70;;;;;;;2.33;71.64;98763.27;105038;1271;72906;-23
2022/02/23 07:58:56;;;;;;;7.10;4.10;;;;;;;2.41;71.74;98767.52;105000;1271;76006;-23
2022/02/23 08:01:28;;;;;;;4.90;3.20;;;;;;;3.05;70.37;98767.58;104947;1271;73642;-23
2022/02/23 08:03:57;;;;;;;6.80;4.50;;;;;;;3.34;68.86;98757.55;105122;1272;61000;-22
2022/02/23 08:06:27;;;;;;;7.90;5.20;;;;;;;3.49;68.60;98752.79;105004;1271;61055;-23
2022/02/23 08:08:56;;;;;;;9.10;4.70;;;;;;;3.49;67.81;98753.31;105045;1271;73515;-23
2022/02/23 08:11:25;;;;;;;7.00;4.00;;;;;;;3.40;68.19;98750.52;105149;1271;75202;-23
2022/02/23 08:13:58;;;;;;;7.40;5.40;;;;;;;3.23;68.58;98751.99;105215;1271;72922;-23
2022/02/23 08:22:11;;;;;;;5.80;3.90;;;;;;;2.81;69.42;98747.42;105200;1270;73266;-23
2022/02/23 08:24:44;;;;;;;13.00;5.20;;;;;;;2.91;69.06;98745.83;105011;1271;75862;-23
2022/02/23 08:27:17;;;;;;;10.00;4.50;;;;;;;3.19;69.22;98739.16;104914;1271;72972;-23
2022/02/23 08:29:47;;;;;;;8.70;3.60;;;;;;;3.33;68.76;98737.67;105047;1271;61102;-24
2022/02/23 08:32:16;;;;;;;5.30;3.60;;;;;;;3.46;67.45;98732.36;105160;1271;61080;-22
2022/02/23 08:34:46;;;;;;;10.20;3.70;;;;;;;3.49;67.62;98730.78;105178;1271;75534;-22
2022/02/23 08:37:15;;;;;;;8.80;3.60;;;;;;;3.47;67.99;98731.79;105156;1271;75999;-22
2022/02/23 08:39:44;;;;;;;5.90;3.80;;;;;;;3.38;67.90;98732.12;105301;1271;73468;-22
2022/02/23 08:42:13;;;;;;;5.80;3.60;;;;;;;3.52;67.57;98727.15;105431;1271;61047;-22
2022/02/23 08:44:41;;;;;;;7.40;3.50;;;;;;;3.54;66.78;98724.83;105070;1271;61141;-22
2022/02/23 08:47:10;;;;;;;7.60;4.60;;;;;;;3.29;67.16;98734.00;105141;1271;75283;-22
2022/02/23 08:49:39;;;;;;;9.90;4.70;;;;;;;3.45;67.86;98726.88;105218;1271;73095;-22
2022/02/23 08:52:08;;;;;;;5.20;3.30;;;;;;;3.54;67.02;98721.96;104970;1271;73417;-22
2022/02/23 08:54:37;;;;;;;11.70;5.30;;;;;;;3.36;66.91;98725.02;105402;1271;61292;-21
2022/02/23 08:57:05;;;;;;;6.10;2.70;;;;;;;3.50;66.88;98716.70;105119;1271;61151;-25
2022/02/23 08:59:35;;;;;;;8.20;4.40;;;;;;;3.49;66.32;98717.90;105389;1271;74524;-23
2022/02/23 09:02:03;;;;;;;8.80;4.30;;;;;;;3.59;66.30;98721.48;105081;1271;76050;-23
2022/02/23 09:04:32;;;;;;;6.30;2.20;;;;;;;3.64;65.89;98716.69;105201;1271;73419;-22
2022/02/23 09:07:02;;;;;;;8.70;3.60;;;;;;;3.63;65.72;98717.79;105380;1271;61100;-24
2022/02/23 09:09:31;;;;;;;8.80;3.80;;;;;;;3.79;65.98;98714.30;105176;1271;61125;-25
2022/02/23 09:12:04;;;;;;;9.40;4.40;;;;;;;4.01;65.44;98710.74;105032;1271;75556;-22
2022/02/23 09:14:32;;;;;;;6.90;3.80;;;;;;;4.14;65.28;98707.42;105106;1271;75986;-24
2022/02/23 09:17:03;;;;;;;7.30;4.20;;;;;;;4.32;64.28;98711.54;105309;1271;74188;-22
2022/02/23 09:19:31;;;;;;;11.50;5.10;;;;;;;4.48;64.57;98713.79;105397;1271;61399;-22
2022/02/23 09:22:00;;;;;;;6.20;3.20;;;;;;;4.68;63.90;98713.98;105149;1271;61054;-23
2022/02/23 09:24:29;;;;;;;3.90;2.80;;;;;;;4.69;62.64;98715.95;105371;1271;75603;-26
2022/02/23 09:26:57;;;;;;;5.70;3.00;;;;;;;4.56;63.13;98715.77;105333;1270;75120;-22
2022/02/23 09:29:26;;;;;;;9.40;3.90;;;;;;;4.51;62.71;98718.64;104933;1271;72398;-23
2022/02/23 09:31:55;;;;;;;5.80;2.60;;;;;;;4.51;63.03;98713.92;104963;1271;61047;-23
2022/02/23 09:34:24;;;;;;;7.30;3.10;;;;;;;4.69;62.77;98712.52;104994;1271;61625;-23
2022/02/23 09:36:52;;;;;;;7.50;3.10;;;;;;;4.86;62.06;98710.59;105427;1271;73759;-22
2022/02/23 09:39:21;;;;;;;10.60;3.60;;;;;;;5.02;61.31;98711.98;105395;1271;75030;-23
2022/02/23 09:41:49;;;;;;;6.20;2.80;;;;;;;5.15;60.62;98713.90;105376;1271;74396;-23
2022/02/23 09:44:18;;;;;;;5.70;3.20;;;;;;;5.18;60.47;98711.50;104903;1271;61153;-23
2022/02/23 09:46:46;;;;;;;8.50;3.60;;;;;;;5.14;60.61;98708.79;104951;1271;61085;-22
2022/02/23 09:49:15;;;;;;;6.90;2.70;;;;;;;5.13;60.20;98709.38;105407;1270;74340;-22
2022/02/23 09:51:44;;;;;;;5.50;2.70;;;;;;;4.91;61.05;98703.39;105226;1271;74925;-22
2022/02/23 09:54:13;;;;;;;6.00;3.40;;;;;;;4.99;61.13;98702.88;104998;1271;74391;-22
2022/02/23 09:56:41;;;;;;;5.70;2.90;;;;;;;5.12;60.59;98699.48;104968;1271;61121;-22
2022/02/23 09:59:12;;;;;;;13.40;4.30;;;;;;;5.21;60.66;98697.37;104943;1271;60984;-24
2022/02/23 10:01:40;;;;;;;10.90;4.20;;;;;;;5.43;60.30;98691.30;105077;1271;74647;-22
2022/02/23 10:04:09;;;;;;;8.20;3.80;;;;;;;5.37;59.30;98691.67;104975;1270;74971;-24
2022/02/23 10:06:39;;;;;;;5.50;3.60;;;;;;;5.73;59.48;98690.04;105135;1271;74417;-22
2022/02/23 10:09:09;;;;;;;5.30;2.80;;;;;;;5.76;58.21;98688.94;105186;1271;61477;-22
2022/02/23 10:11:39;;;;;;;6.10;2.80;;;;;;;5.59;57.88;98687.63;105083;1271;62551;-22
2022/02/23 10:14:08;;;;;;;7.80;3.30;;;;;;;5.51;59.11;98682.69;104832;1271;74696;-23
2022/02/23 10:16:39;;;;;;;7.70;3.50;;;;;;;5.31;58.26;98678.86;104807;1271;74472;-22
2022/02/23 10:19:10;;;;;;;6.00;2.80;;;;;;;5.17;58.23;98683.70;104877;1271;74227;-23
2022/02/23 10:21:59;;;;;;;9.50;3.50;;;;;;;5.04;58.83;98679.85;104918;1271;61692;-23
2022/02/23 10:24:33;;;;;;;5.10;2.60;;;;;;;5.05;59.20;98676.00;104989;1271;61058;-23
2022/02/23 10:27:10;;;;;;;7.20;2.90;;;;;;;5.43;58.23;98673.89;105122;1271;74134;-23
2022/02/23 10:29:49;;;;;;;7.70;2.50;;;;;;;5.54;57.00;98674.71;105146;1271;75158;-23
2022/02/23 10:32:18;;;;;;;7.70;3.20;;;;;;;5.94;56.36;98669.33;105171;1271;74419;-23
2022/02/23 10:34:48;;;;;;;3.70;2.20;;;;;;;6.37;54.87;98666.40;105420;1271;61067;-23
2022/02/23 10:37:20;;;;;;;2.20;1.80;;;;;;;6.72;53.69;98668.57;104922;1271;61178;-23
2022/02/23 10:39:51;;;;;;;7.80;3.50;;;;;;;6.91;53.81;98669.15;104877;1271;74497;-23
2022/02/23 10:42:24;;;;;;;4.10;2.40;;;;;;;7.26;52.30;98673.55;104867;1271;76192;-23
2022/02/23 10:44:53;;;;;;;6.60;2.90;;;;;;;7.24;52.21;98674.91;104897;1271;74441;-23
2022/02/23 10:47:36;;;;;;;4.70;2.50;;;;;;;7.49;51.79;98668.57;105078;1271;61843;-23
2022/02/23 10:50:10;;;;;;;7.20;2.80;;;;;;;7.66;49.97;98662.14;105081;1271;61034;-23
2022/02/23 10:52:39;;;;;;;;;;;;;;;7.45;50.20;98660.00;104998;1271;74606;-23
2022/02/23 10:55:22;;;;;;;3.60;1.50;;;;;;;7.13;50.82;98661.50;105345;1271;76007;-23
2022/02/23 10:57:53;;;;;;;5.10;2.60;;;;;;;7.37;50.02;98658.40;105129;1271;73514;-24
2022/02/23 11:00:25;;;;;;;8.10;2.00;;;;;;;7.30;49.54;98658.70;105120;1271;61239;-23
2022/02/23 11:02:53;;;;;;;8.90;3.50;;;;;;;6.88;49.81;98659.88;105151;1271;62113;-23
2022/02/23 11:05:24;;;;;;;5.80;2.60;;;;;;;6.54;50.82;98657.79;105109;1271;75795;-23
2022/02/23 11:07:57;;;;;;;5.00;2.50;;;;;;;6.50;51.64;98660.66;104901;1271;75842;-23
2022/02/23 11:10:25;;;;;;;4.80;2.40;;;;;;;6.49;51.01;98653.32;104765;1271;74525;-24
2022/02/23 11:12:56;;;;;;;5.80;2.40;;;;;;;6.53;51.64;98652.19;104901;1271;60999;-24
2022/02/23 11:15:27;;;;;;;7.80;2.70;;;;;;;6.41;52.01;98656.80;104939;1271;61048;-24
2022/02/23 11:17:56;;;;;;;7.70;2.50;;;;;;;6.16;52.86;98652.50;104842;1271;75400;-23
2022/02/23 11:20:31;;;;;;;15.30;3.70;;;;;;;6.01;52.79;98642.48;105163;1271;75020;-24
2022/02/23 11:23:01;;;;;;;11.90;3.10;;;;;;;5.98;52.74;98640.98;105130;1271;74705;-24
2022/02/23 11:25:32;;;;;;;4.60;2.20;;;;;;;6.09;53.14;98644.76;104980;1270;61503;-24
2022/02/23 11:28:16;;;;;;;8.30;2.50;;;;;;;6.12;52.42;98634.33;104993;1271;61508;-23
2022/02/23 11:30:44;;;;;;;7.90;2.60;;;;;;;6.09;52.78;98635.41;104876;1271;75671;-22
2022/02/23 11:33:13;;;;;;;9.70;2.30;;;;;;;6.01;52.73;98639.05;104952;1271;75745;-23
2022/02/23 11:35:58;;;;;;;;;;;;;;;5.95;53.00;98632.52;105004;1271;73530;-22
2022/02/23 11:38:29;;;;;;;3.90;1.50;;;;;;;5.88;51.86;98627.71;105161;1271;61120;-22
2022/02/23 11:40:59;;;;;;;2.50;1.50;;;;;;;5.79;52.39;98633.61;105112;1271;61123;-22
2022/02/23 11:43:33;;;;;;;5.90;2.20;;;;;;;5.73;52.64;98633.37;105096;1271;75512;-22
2022/02/23 11:46:23;;;;;;;5.50;1.90;;;;;;;5.71;53.49;98631.77;105093;1271;76027;-24
2022/02/23 11:52:20;;;;;;;4.00;1.70;;;;;;;5.60;53.95;98628.17;104910;1271;61108;-23